sensor_id;sensor_type;location;lat;lon;timestamp;P1;durP1;ratioP1;P2;durP2;ratioP2
15451;SDS011;7827;53.594;9.938;2022-10-16T00:01:43;9.77;;;8.68;;
15451;SDS011;7827;53.594;9.938;2022-10-16T00:04:13;10.77;;;8.65;;
15451;SDS011;7827;53.594;9.938;2022-10-16T00:06:44;14.63;;;9.00;;
15451;SDS011;7827;53.594;9.938;2022-10-16T00:09:12;11.40;;;9.35;;
15451;SDS011;7827;53.594;9.938;2022-10-16T00:11:41;12.95;;;8.50;;
15451;SDS011;7827;53.594;9.938;2022-10-16T00:14:10;9.45;;;8.23;;
15451;SDS011;7827;53.594;9.938;2022-10-16T00:16:41;11.35;;;8.30;;
15451;SDS011;7827;53.594;9.938;2022-10-16T00:19:10;9.77;;;7.80;;
15451;SDS011;7827;53.594;9.938;2022-10-16T00:21:39;9.95;;;7.53;;
15451;SDS011;7827;53.594;9.938;2022-10-16T00:24:28;9.05;;;8.15;;
15451;SDS011;7827;53.594;9.938;2022-10-16T00:26:56;8.45;;;6.38;;
15451;SDS011;7827;53.594;9.938;2022-10-16T00:29:24;7.97;;;6.68;;
15451;SDS011;7827;53.594;9.938;2022-10-16T00:31:53;10.57;;;6.65;;
15451;SDS011;7827;53.594;9.938;2022-10-16T00:34:21;9.75;;;6.20;;
15451;SDS011;7827;53.594;9.938;2022-10-16T00:36:49;7.80;;;6.10;;
15451;SDS011;7827;53.594;9.938;2022-10-16T00:39:17;7.82;;;5.80;;
15451;SDS011;7827;53.594;9.938;2022-10-16T00:41:47;8.20;;;5.35;;
15451;SDS011;7827;53.594;9.938;2022-10-16T00:47:17;6.95;;;4.80;;
15451;SDS011;7827;53.594;9.938;2022-10-16T00:49:55;8.80;;;4.63;;
15451;SDS011;7827;53.594;9.938;2022-10-16T00:52:31;6.15;;;4.13;;
15451;SDS011;7827;53.594;9.938;2022-10-16T00:55:00;7.13;;;4.07;;
15451;SDS011;7827;53.594;9.938;2022-10-16T00:57:33;6.85;;;3.72;;
15451;SDS011;7827;53.594;9.938;2022-10-16T01:00:02;5.72;;;4.22;;
15451;SDS011;7827;53.594;9.938;2022-10-16T01:02:33;6.93;;;4.07;;
15451;SDS011;7827;53.594;9.938;2022-10-16T01:05:02;7.68;;;4.15;;
15451;SDS011;7827;53.594;9.938;2022-10-16T01:07:36;5.43;;;3.78;;
15451;SDS011;7827;53.594;9.938;2022-10-16T01:10:18;5.85;;;3.67;;
15451;SDS011;7827;53.594;9.938;2022-10-16T01:13:01;4.80;;;3.58;;
15451;SDS011;7827;53.594;9.938;2022-10-16T01:15:37;7.32;;;4.32;;
15451;SDS011;7827;53.594;9.938;2022-10-16T01:18:11;8.05;;;4.07;;
15451;SDS011;7827;53.594;9.938;2022-10-16T01:20:46;5.97;;;3.70;;
15451;SDS011;7827;53.594;9.938;2022-10-16T01:23:27;5.05;;;3.38;;
15451;SDS011;7827;53.594;9.938;2022-10-16T01:26:13;6.22;;;3.60;;
15451;SDS011;7827;53.594;9.938;2022-10-16T01:29:01;8.45;;;3.42;;
15451;SDS011;7827;53.594;9.938;2022-10-16T01:31:36;9.13;;;4.07;;
15451;SDS011;7827;53.594;9.938;2022-10-16T01:34:12;7.00;;;3.28;;
15451;SDS011;7827;53.594;9.938;2022-10-16T01:36:46;5.10;;;3.15;;
15451;SDS011;7827;53.594;9.938;2022-10-16T01:39:21;5.47;;;3.10;;
15451;SDS011;7827;53.594;9.938;2022-10-16T01:41:58;6.80;;;3.35;;
15451;SDS011;7827;53.594;9.938;2022-10-16T01:44:32;10.45;;;3.35;;
15451;SDS011;7827;53.594;9.938;2022-10-16T01:47:03;6.13;;;3.00;;
15451;SDS011;7827;53.594;9.938;2022-10-16T01:49:35;7.53;;;3.05;;
15451;SDS011;7827;53.594;9.938;2022-10-16T01:52:07;7.63;;;2.70;;
15451;SDS011;7827;53.594;9.938;2022-10-16T01:54:41;9.07;;;2.90;;
15451;SDS011;7827;53.594;9.938;2022-10-16T01:57:28;4.72;;;2.90;;
15451;SDS011;7827;53.594;9.938;2022-10-16T02:00:05;4.35;;;2.92;;
15451;SDS011;7827;53.594;9.938;2022-10-16T02:02:39;3.25;;;2.40;;
15451;SDS011;7827;53.594;9.938;2022-10-16T02:05:13;6.32;;;3.00;;
15451;SDS011;7827;53.594;9.938;2022-10-16T02:07:50;3.75;;;3.10;;
15451;SDS011;7827;53.594;9.938;2022-10-16T02:10:18;4.63;;;2.78;;
15451;SDS011;7827;53.594;9.938;2022-10-16T02:12:48;3.70;;;2.70;;
15451;SDS011;7827;53.594;9.938;2022-10-16T02:15:25;8.73;;;2.67;;
15451;SDS011;7827;53.594;9.938;2022-10-16T02:17:53;3.20;;;2.80;;
15451;SDS011;7827;53.594;9.938;2022-10-16T02:20:22;2.90;;;2.60;;
15451;SDS011;7827;53.594;9.938;2022-10-16T02:22:57;5.95;;;2.80;;
15451;SDS011;7827;53.594;9.938;2022-10-16T02:25:29;4.45;;;2.53;;
15451;SDS011;7827;53.594;9.938;2022-10-16T02:28:02;5.03;;;2.60;;
15451;SDS011;7827;53.594;9.938;2022-10-16T02:30:38;7.43;;;2.85;;
15451;SDS011;7827;53.594;9.938;2022-10-16T02:33:11;4.60;;;2.92;;
15451;SDS011;7827;53.594;9.938;2022-10-16T02:35:42;4.93;;;2.60;;
15451;SDS011;7827;53.594;9.938;2022-10-16T02:38:14;5.15;;;2.50;;
15451;SDS011;7827;53.594;9.938;2022-10-16T02:40:43;5.75;;;2.67;;
15451;SDS011;7827;53.594;9.938;2022-10-16T02:43:12;4.82;;;2.50;;
15451;SDS011;7827;53.594;9.938;2022-10-16T02:45:42;7.82;;;2.50;;
15451;SDS011;7827;53.594;9.938;2022-10-16T02:48:10;6.95;;;2.50;;
15451;SDS011;7827;53.594;9.938;2022-10-16T02:50:39;4.65;;;2.70;;
15451;SDS011;7827;53.594;9.938;2022-10-16T02:53:07;7.28;;;2.50;;
15451;SDS011;7827;53.594;9.938;2022-10-16T02:55:35;4.47;;;2.22;;
15451;SDS011;7827;53.594;9.938;2022-10-16T02:58:04;8.90;;;2.70;;
15451;SDS011;7827;53.594;9.938;2022-10-16T03:00:32;3.47;;;2.10;;
15451;SDS011;7827;53.594;9.938;2022-10-16T03:03:01;4.75;;;2.72;;
15451;SDS011;7827;53.594;9.938;2022-10-16T03:05:30;5.22;;;2.22;;
15451;SDS011;7827;53.594;9.938;2022-10-16T03:07:58;4.82;;;2.50;;
15451;SDS011;7827;53.594;9.938;2022-10-16T03:10:27;3.17;;;2.05;;
15451;SDS011;7827;53.594;9.938;2022-10-16T03:12:55;5.35;;;2.38;;
15451;SDS011;7827;53.594;9.938;2022-10-16T03:15:23;3.10;;;2.22;;
15451;SDS011;7827;53.594;9.938;2022-10-16T03:17:52;4.55;;;2.38;;
15451;SDS011;7827;53.594;9.938;2022-10-16T03:20:21;12.10;;;2.83;;
15451;SDS011;7827;53.594;9.938;2022-10-16T03:22:49;3.92;;;2.35;;
15451;SDS011;7827;53.594;9.938;2022-10-16T03:25:18;4.82;;;2.47;;
15451;SDS011;7827;53.594;9.938;2022-10-16T03:27:46;6.40;;;2.25;;
15451;SDS011;7827;53.594;9.938;2022-10-16T03:30:14;4.30;;;2.70;;
15451;SDS011;7827;53.594;9.938;2022-10-16T03:32:43;5.13;;;2.55;;
15451;SDS011;7827;53.594;9.938;2022-10-16T03:35:11;6.60;;;2.40;;
15451;SDS011;7827;53.594;9.938;2022-10-16T03:37:41;3.17;;;2.65;;
15451;SDS011;7827;53.594;9.938;2022-10-16T03:40:09;6.57;;;3.00;;
15451;SDS011;7827;53.594;9.938;2022-10-16T03:42:38;3.33;;;2.33;;
15451;SDS011;7827;53.594;9.938;2022-10-16T03:45:07;3.80;;;2.20;;
15451;SDS011;7827;53.594;9.938;2022-10-16T03:47:36;5.72;;;2.65;;
15451;SDS011;7827;53.594;9.938;2022-10-16T03:50:05;6.07;;;2.67;;
15451;SDS011;7827;53.594;9.938;2022-10-16T03:52:34;8.73;;;2.95;;
15451;SDS011;7827;53.594;9.938;2022-10-16T03:55:04;4.10;;;2.25;;
15451;SDS011;7827;53.594;9.938;2022-10-16T03:57:34;5.88;;;2.30;;
15451;SDS011;7827;53.594;9.938;2022-10-16T04:00:02;4.18;;;2.75;;
15451;SDS011;7827;53.594;9.938;2022-10-16T04:02:37;5.10;;;2.30;;
15451;SDS011;7827;53.594;9.938;2022-10-16T04:05:06;6.72;;;3.05;;
15451;SDS011;7827;53.594;9.938;2022-10-16T04:07:35;5.70;;;2.60;;
15451;SDS011;7827;53.594;9.938;2022-10-16T04:10:05;5.07;;;2.90;;
15451;SDS011;7827;53.594;9.938;2022-10-16T04:12:34;4.25;;;2.38;;
15451;SDS011;7827;53.594;9.938;2022-10-16T04:15:03;6.82;;;2.33;;
15451;SDS011;7827;53.594;9.938;2022-10-16T04:17:31;4.05;;;2.33;;
15451;SDS011;7827;53.594;9.938;2022-10-16T04:20:00;4.43;;;2.60;;
15451;SDS011;7827;53.594;9.938;2022-10-16T04:22:28;6.45;;;2.13;;
15451;SDS011;7827;53.594;9.938;2022-10-16T04:24:56;5.65;;;2.33;;
15451;SDS011;7827;53.594;9.938;2022-10-16T04:27:25;4.95;;;2.78;;
15451;SDS011;7827;53.594;9.938;2022-10-16T04:29:55;4.03;;;2.33;;
15451;SDS011;7827;53.594;9.938;2022-10-16T04:32:24;4.38;;;2.15;;
15451;SDS011;7827;53.594;9.938;2022-10-16T04:34:52;4.78;;;2.30;;
15451;SDS011;7827;53.594;9.938;2022-10-16T04:37:23;7.03;;;2.53;;
15451;SDS011;7827;53.594;9.938;2022-10-16T04:39:53;5.30;;;2.42;;
15451;SDS011;7827;53.594;9.938;2022-10-16T04:42:21;5.45;;;2.38;;
15451;SDS011;7827;53.594;9.938;2022-10-16T04:44:51;6.70;;;2.75;;
15451;SDS011;7827;53.594;9.938;2022-10-16T04:47:19;5.82;;;2.53;;
15451;SDS011;7827;53.594;9.938;2022-10-16T04:49:48;6.50;;;2.20;;
15451;SDS011;7827;53.594;9.938;2022-10-16T04:52:16;5.25;;;2.40;;
15451;SDS011;7827;53.594;9.938;2022-10-16T04:54:45;4.28;;;2.53;;
15451;SDS011;7827;53.594;9.938;2022-10-16T04:57:13;3.83;;;2.42;;
15451;SDS011;7827;53.594;9.938;2022-10-16T04:59:41;8.48;;;3.35;;
15451;SDS011;7827;53.594;9.938;2022-10-16T05:02:11;9.45;;;2.97;;
15451;SDS011;7827;53.594;9.938;2022-10-16T05:04:39;5.95;;;2.97;;
15451;SDS011;7827;53.594;9.938;2022-10-16T05:07:07;4.22;;;2.92;;
15451;SDS011;7827;53.594;9.938;2022-10-16T05:09:35;8.05;;;3.10;;
15451;SDS011;7827;53.594;9.938;2022-10-16T05:12:03;5.97;;;3.20;;
15451;SDS011;7827;53.594;9.938;2022-10-16T05:14:31;6.03;;;3.72;;
15451;SDS011;7827;53.594;9.938;2022-10-16T05:16:59;9.35;;;3.55;;
15451;SDS011;7827;53.594;9.938;2022-10-16T05:19:29;11.13;;;3.50;;
15451;SDS011;7827;53.594;9.938;2022-10-16T05:21:57;8.30;;;3.85;;
15451;SDS011;7827;53.594;9.938;2022-10-16T05:24:26;9.10;;;3.80;;
15451;SDS011;7827;53.594;9.938;2022-10-16T05:26:54;7.75;;;3.97;;
15451;SDS011;7827;53.594;9.938;2022-10-16T05:29:22;5.63;;;4.03;;
15451;SDS011;7827;53.594;9.938;2022-10-16T05:31:51;6.18;;;3.72;;
15451;SDS011;7827;53.594;9.938;2022-10-16T05:34:20;11.10;;;4.07;;
15451;SDS011;7827;53.594;9.938;2022-10-16T05:36:50;6.43;;;3.50;;
15451;SDS011;7827;53.594;9.938;2022-10-16T05:39:18;7.32;;;3.90;;
15451;SDS011;7827;53.594;9.938;2022-10-16T05:41:49;6.53;;;3.88;;
15451;SDS011;7827;53.594;9.938;2022-10-16T05:44:18;7.15;;;3.53;;
15451;SDS011;7827;53.594;9.938;2022-10-16T05:46:47;7.18;;;4.00;;
15451;SDS011;7827;53.594;9.938;2022-10-16T05:49:15;7.18;;;3.92;;
15451;SDS011;7827;53.594;9.938;2022-10-16T05:51:43;7.10;;;3.55;;
15451;SDS011;7827;53.594;9.938;2022-10-16T05:54:13;8.15;;;3.78;;
15451;SDS011;7827;53.594;9.938;2022-10-16T05:56:41;6.30;;;3.92;;
15451;SDS011;7827;53.594;9.938;2022-10-16T05:59:10;15.55;;;3.85;;
15451;SDS011;7827;53.594;9.938;2022-10-16T06:01:38;5.18;;;3.50;;
15451;SDS011;7827;53.594;9.938;2022-10-16T06:04:07;5.20;;;3.28;;
15451;SDS011;7827;53.594;9.938;2022-10-16T06:06:37;5.40;;;3.40;;
15451;SDS011;7827;53.594;9.938;2022-10-16T06:09:05;6.28;;;3.47;;
15451;SDS011;7827;53.594;9.938;2022-10-16T06:11:34;7.75;;;3.85;;
15451;SDS011;7827;53.594;9.938;2022-10-16T06:14:04;6.50;;;3.25;;
15451;SDS011;7827;53.594;9.938;2022-10-16T06:16:34;8.52;;;3.25;;
15451;SDS011;7827;53.594;9.938;2022-10-16T06:19:04;7.03;;;3.95;;
15451;SDS011;7827;53.594;9.938;2022-10-16T06:21:34;8.13;;;3.58;;
15451;SDS011;7827;53.594;9.938;2022-10-16T06:24:02;4.20;;;3.40;;
15451;SDS011;7827;53.594;9.938;2022-10-16T06:26:31;4.07;;;3.00;;
15451;SDS011;7827;53.594;9.938;2022-10-16T06:29:01;5.03;;;3.10;;
15451;SDS011;7827;53.594;9.938;2022-10-16T06:31:29;5.97;;;3.35;;
15451;SDS011;7827;53.594;9.938;2022-10-16T06:33:59;6.35;;;3.17;;
15451;SDS011;7827;53.594;9.938;2022-10-16T06:36:30;5.53;;;3.15;;
15451;SDS011;7827;53.594;9.938;2022-10-16T06:38:59;9.68;;;3.60;;
15451;SDS011;7827;53.594;9.938;2022-10-16T06:41:27;5.10;;;3.10;;
15451;SDS011;7827;53.594;9.938;2022-10-16T06:43:57;5.28;;;3.20;;
15451;SDS011;7827;53.594;9.938;2022-10-16T06:46:26;5.85;;;3.28;;
15451;SDS011;7827;53.594;9.938;2022-10-16T06:48:55;5.90;;;3.60;;
15451;SDS011;7827;53.594;9.938;2022-10-16T06:51:24;9.23;;;3.63;;
15451;SDS011;7827;53.594;9.938;2022-10-16T06:53:53;5.25;;;3.50;;
15451;SDS011;7827;53.594;9.938;2022-10-16T06:56:29;7.05;;;3.30;;
15451;SDS011;7827;53.594;9.938;2022-10-16T06:58:59;6.18;;;3.50;;
15451;SDS011;7827;53.594;9.938;2022-10-16T07:01:29;7.72;;;3.58;;
15451;SDS011;7827;53.594;9.938;2022-10-16T07:03:59;5.28;;;3.42;;
15451;SDS011;7827;53.594;9.938;2022-10-16T07:06:30;8.82;;;3.90;;
15451;SDS011;7827;53.594;9.938;2022-10-16T07:09:02;5.95;;;3.92;;
15451;SDS011;7827;53.594;9.938;2022-10-16T07:11:33;5.22;;;3.50;;
15451;SDS011;7827;53.594;9.938;2022-10-16T07:14:02;6.47;;;3.40;;
15451;SDS011;7827;53.594;9.938;2022-10-16T07:16:32;5.22;;;3.72;;
15451;SDS011;7827;53.594;9.938;2022-10-16T07:19:01;8.18;;;3.75;;
15451;SDS011;7827;53.594;9.938;2022-10-16T07:21:31;6.32;;;3.80;;
15451;SDS011;7827;53.594;9.938;2022-10-16T07:24:03;5.82;;;4.05;;
15451;SDS011;7827;53.594;9.938;2022-10-16T07:26:35;7.05;;;4.18;;
15451;SDS011;7827;53.594;9.938;2022-10-16T07:29:05;7.78;;;3.78;;
15451;SDS011;7827;53.594;9.938;2022-10-16T07:31:36;6.18;;;4.28;;
15451;SDS011;7827;53.594;9.938;2022-10-16T07:34:05;6.35;;;4.00;;
15451;SDS011;7827;53.594;9.938;2022-10-16T07:36:33;8.05;;;4.32;;
15451;SDS011;7827;53.594;9.938;2022-10-16T07:39:02;8.18;;;4.10;;
15451;SDS011;7827;53.594;9.938;2022-10-16T07:41:31;10.07;;;4.65;;
15451;SDS011;7827;53.594;9.938;2022-10-16T07:44:03;6.55;;;4.40;;
15451;SDS011;7827;53.594;9.938;2022-10-16T07:46:32;6.88;;;3.78;;
15451;SDS011;7827;53.594;9.938;2022-10-16T07:49:03;7.22;;;4.53;;
15451;SDS011;7827;53.594;9.938;2022-10-16T07:51:31;7.60;;;4.13;;
15451;SDS011;7827;53.594;9.938;2022-10-16T07:54:00;6.43;;;4.03;;
15451;SDS011;7827;53.594;9.938;2022-10-16T07:56:28;4.65;;;3.80;;
15451;SDS011;7827;53.594;9.938;2022-10-16T07:58:58;6.38;;;4.60;;
15451;SDS011;7827;53.594;9.938;2022-10-16T08:01:27;5.00;;;4.28;;
15451;SDS011;7827;53.594;9.938;2022-10-16T08:03:55;6.57;;;4.30;;
15451;SDS011;7827;53.594;9.938;2022-10-16T08:06:24;7.03;;;4.10;;
15451;SDS011;7827;53.594;9.938;2022-10-16T08:08:54;6.55;;;4.25;;
15451;SDS011;7827;53.594;9.938;2022-10-16T08:11:23;6.60;;;4.18;;
15451;SDS011;7827;53.594;9.938;2022-10-16T08:13:52;5.68;;;4.22;;
15451;SDS011;7827;53.594;9.938;2022-10-16T08:16:20;9.15;;;4.38;;
15451;SDS011;7827;53.594;9.938;2022-10-16T08:18:48;5.78;;;3.63;;
15451;SDS011;7827;53.594;9.938;2022-10-16T08:21:19;7.13;;;4.10;;
15451;SDS011;7827;53.594;9.938;2022-10-16T08:23:50;8.98;;;4.03;;
15451;SDS011;7827;53.594;9.938;2022-10-16T08:26:24;9.85;;;4.28;;
15451;SDS011;7827;53.594;9.938;2022-10-16T08:28:54;5.43;;;3.80;;
15451;SDS011;7827;53.594;9.938;2022-10-16T08:31:23;6.75;;;4.13;;
15451;SDS011;7827;53.594;9.938;2022-10-16T08:33:52;4.95;;;3.90;;
15451;SDS011;7827;53.594;9.938;2022-10-16T08:36:20;5.90;;;3.78;;
15451;SDS011;7827;53.594;9.938;2022-10-16T08:38:49;5.38;;;4.07;;
15451;SDS011;7827;53.594;9.938;2022-10-16T08:44:39;6.53;;;4.22;;
15451;SDS011;7827;53.594;9.938;2022-10-16T08:47:53;6.03;;;3.78;;
15451;SDS011;7827;53.594;9.938;2022-10-16T08:50:36;5.97;;;3.30;;
15451;SDS011;7827;53.594;9.938;2022-10-16T08:53:09;9.70;;;4.03;;
15451;SDS011;7827;53.594;9.938;2022-10-16T08:55:45;8.93;;;3.63;;
15451;SDS011;7827;53.594;9.938;2022-10-16T08:58:18;7.32;;;3.70;;
15451;SDS011;7827;53.594;9.938;2022-10-16T09:00:48;6.00;;;3.55;;
15451;SDS011;7827;53.594;9.938;2022-10-16T09:03:23;5.82;;;3.40;;
15451;SDS011;7827;53.594;9.938;2022-10-16T09:06:12;5.03;;;3.00;;
15451;SDS011;7827;53.594;9.938;2022-10-16T09:09:06;5.20;;;2.42;;
15451;SDS011;7827;53.594;9.938;2022-10-16T09:11:55;7.43;;;3.13;;
15451;SDS011;7827;53.594;9.938;2022-10-16T09:14:35;4.30;;;3.05;;
15451;SDS011;7827;53.594;9.938;2022-10-16T09:17:27;6.93;;;2.95;;
15451;SDS011;7827;53.594;9.938;2022-10-16T09:20:13;7.38;;;2.80;;
15451;SDS011;7827;53.594;9.938;2022-10-16T09:22:55;5.85;;;2.50;;
15451;SDS011;7827;53.594;9.938;2022-10-16T09:25:41;6.65;;;2.58;;
15451;SDS011;7827;53.594;9.938;2022-10-16T09:28:15;5.18;;;2.30;;
15451;SDS011;7827;53.594;9.938;2022-10-16T09:30:45;5.20;;;2.60;;
15451;SDS011;7827;53.594;9.938;2022-10-16T09:33:16;7.28;;;2.72;;
15451;SDS011;7827;53.594;9.938;2022-10-16T09:35:49;4.65;;;2.30;;
15451;SDS011;7827;53.594;9.938;2022-10-16T09:38:20;3.53;;;2.10;;
15451;SDS011;7827;53.594;9.938;2022-10-16T09:40:52;5.05;;;2.63;;
15451;SDS011;7827;53.594;9.938;2022-10-16T09:43:31;5.45;;;2.45;;
15451;SDS011;7827;53.594;9.938;2022-10-16T09:46:07;4.22;;;2.33;;
15451;SDS011;7827;53.594;9.938;2022-10-16T09:48:49;3.45;;;2.35;;
15451;SDS011;7827;53.594;9.938;2022-10-16T09:51:21;5.40;;;2.30;;
15451;SDS011;7827;53.594;9.938;2022-10-16T09:53:57;5.18;;;2.47;;
15451;SDS011;7827;53.594;9.938;2022-10-16T09:56:28;5.80;;;2.13;;
15451;SDS011;7827;53.594;9.938;2022-10-16T09:59:01;4.88;;;2.13;;
15451;SDS011;7827;53.594;9.938;2022-10-16T10:01:39;3.95;;;2.00;;
15451;SDS011;7827;53.594;9.938;2022-10-16T10:04:11;2.15;;;1.80;;
15451;SDS011;7827;53.594;9.938;2022-10-16T10:06:41;4.90;;;2.40;;
15451;SDS011;7827;53.594;9.938;2022-10-16T10:09:15;7.72;;;2.30;;
15451;SDS011;7827;53.594;9.938;2022-10-16T10:11:49;4.93;;;2.28;;
15451;SDS011;7827;53.594;9.938;2022-10-16T10:17:14;3.60;;;2.22;;
15451;SDS011;7827;53.594;9.938;2022-10-16T10:19:47;4.20;;;2.05;;
15451;SDS011;7827;53.594;9.938;2022-10-16T10:22:24;4.55;;;2.38;;
15451;SDS011;7827;53.594;9.938;2022-10-16T10:25:00;5.22;;;2.33;;
15451;SDS011;7827;53.594;9.938;2022-10-16T10:27:49;9.00;;;2.95;;
15451;SDS011;7827;53.594;9.938;2022-10-16T10:30:34;6.88;;;2.28;;
15451;SDS011;7827;53.594;9.938;2022-10-16T10:33:14;3.90;;;2.25;;
15451;SDS011;7827;53.594;9.938;2022-10-16T10:35:54;4.50;;;2.30;;
15451;SDS011;7827;53.594;9.938;2022-10-16T10:38:39;5.13;;;2.42;;
15451;SDS011;7827;53.594;9.938;2022-10-16T10:41:19;5.13;;;2.47;;
15451;SDS011;7827;53.594;9.938;2022-10-16T10:44:16;7.28;;;2.53;;
15451;SDS011;7827;53.594;9.938;2022-10-16T10:47:01;5.25;;;2.10;;
15451;SDS011;7827;53.594;9.938;2022-10-16T10:49:47;3.65;;;1.83;;
15451;SDS011;7827;53.594;9.938;2022-10-16T10:52:34;4.60;;;1.75;;
15451;SDS011;7827;53.594;9.938;2022-10-16T10:55:25;5.32;;;1.80;;
15451;SDS011;7827;53.594;9.938;2022-10-16T10:58:08;4.93;;;1.95;;
15451;SDS011;7827;53.594;9.938;2022-10-16T11:01:06;5.07;;;1.73;;
15451;SDS011;7827;53.594;9.938;2022-10-16T11:03:46;4.25;;;1.90;;
15451;SDS011;7827;53.594;9.938;2022-10-16T11:06:48;6.55;;;2.38;;
15451;SDS011;7827;53.594;9.938;2022-10-16T11:09:23;2.53;;;1.80;;
15451;SDS011;7827;53.594;9.938;2022-10-16T11:11:59;6.43;;;1.67;;
15451;SDS011;7827;53.594;9.938;2022-10-16T11:14:36;6.22;;;1.70;;
15451;SDS011;7827;53.594;9.938;2022-10-16T11:17:13;5.70;;;1.95;;
15451;SDS011;7827;53.594;9.938;2022-10-16T11:19:50;6.15;;;1.83;;
15451;SDS011;7827;53.594;9.938;2022-10-16T11:22:27;5.80;;;1.63;;
15451;SDS011;7827;53.594;9.938;2022-10-16T11:25:02;5.78;;;1.90;;
15451;SDS011;7827;53.594;9.938;2022-10-16T11:27:41;6.20;;;1.83;;
15451;SDS011;7827;53.594;9.938;2022-10-16T11:30:16;4.03;;;1.80;;
15451;SDS011;7827;53.594;9.938;2022-10-16T11:32:52;4.65;;;1.88;;
15451;SDS011;7827;53.594;9.938;2022-10-16T11:35:36;8.77;;;1.50;;
15451;SDS011;7827;53.594;9.938;2022-10-16T11:38:14;4.43;;;1.40;;
15451;SDS011;7827;53.594;9.938;2022-10-16T11:40:56;4.65;;;1.50;;
15451;SDS011;7827;53.594;9.938;2022-10-16T11:43:37;6.35;;;1.30;;
15451;SDS011;7827;53.594;9.938;2022-10-16T11:46:11;3.33;;;1.55;;
15451;SDS011;7827;53.594;9.938;2022-10-16T11:48:47;3.70;;;1.27;;
15451;SDS011;7827;53.594;9.938;2022-10-16T11:51:25;4.20;;;1.73;;
15451;SDS011;7827;53.594;9.938;2022-10-16T11:54:04;6.05;;;1.73;;
15451;SDS011;7827;53.594;9.938;2022-10-16T11:56:48;7.55;;;1.70;;
15451;SDS011;7827;53.594;9.938;2022-10-16T11:59:26;3.45;;;1.52;;
15451;SDS011;7827;53.594;9.938;2022-10-16T12:02:11;2.65;;;1.38;;
15451;SDS011;7827;53.594;9.938;2022-10-16T12:05:00;4.13;;;1.80;;
15451;SDS011;7827;53.594;9.938;2022-10-16T12:07:46;3.85;;;1.58;;
15451;SDS011;7827;53.594;9.938;2022-10-16T12:10:25;7.55;;;2.13;;
15451;SDS011;7827;53.594;9.938;2022-10-16T12:12:58;4.03;;;1.58;;
15451;SDS011;7827;53.594;9.938;2022-10-16T12:15:26;6.10;;;1.77;;
15451;SDS011;7827;53.594;9.938;2022-10-16T12:18:21;5.68;;;1.83;;
15451;SDS011;7827;53.594;9.938;2022-10-16T12:20:54;7.22;;;1.50;;
15451;SDS011;7827;53.594;9.938;2022-10-16T12:23:27;5.38;;;1.83;;
15451;SDS011;7827;53.594;9.938;2022-10-16T12:25:55;8.10;;;1.95;;
15451;SDS011;7827;53.594;9.938;2022-10-16T12:28:26;6.30;;;1.83;;
15451;SDS011;7827;53.594;9.938;2022-10-16T12:30:58;6.72;;;1.98;;
15451;SDS011;7827;53.594;9.938;2022-10-16T12:33:29;5.70;;;1.70;;
15451;SDS011;7827;53.594;9.938;2022-10-16T12:36:00;4.55;;;1.60;;
15451;SDS011;7827;53.594;9.938;2022-10-16T12:38:35;5.03;;;1.45;;
15451;SDS011;7827;53.594;9.938;2022-10-16T12:41:12;4.38;;;2.17;;
15451;SDS011;7827;53.594;9.938;2022-10-16T12:43:54;9.88;;;1.90;;
15451;SDS011;7827;53.594;9.938;2022-10-16T12:46:24;5.47;;;2.00;;
15451;SDS011;7827;53.594;9.938;2022-10-16T12:49:05;2.95;;;1.52;;
15451;SDS011;7827;53.594;9.938;2022-10-16T12:51:56;5.25;;;1.73;;
15451;SDS011;7827;53.594;9.938;2022-10-16T12:54:27;7.22;;;1.73;;
15451;SDS011;7827;53.594;9.938;2022-10-16T12:57:04;5.15;;;1.80;;
15451;SDS011;7827;53.594;9.938;2022-10-16T12:59:53;7.75;;;1.80;;
15451;SDS011;7827;53.594;9.938;2022-10-16T13:02:53;5.93;;;1.80;;
15451;SDS011;7827;53.594;9.938;2022-10-16T13:06:17;5.32;;;1.65;;
15451;SDS011;7827;53.594;9.938;2022-10-16T13:09:02;7.50;;;1.85;;
15451;SDS011;7827;53.594;9.938;2022-10-16T13:11:55;6.45;;;1.67;;
15451;SDS011;7827;53.594;9.938;2022-10-16T13:14:46;6.30;;;1.90;;
15451;SDS011;7827;53.594;9.938;2022-10-16T13:17:37;5.15;;;1.95;;
15451;SDS011;7827;53.594;9.938;2022-10-16T13:20:16;6.45;;;2.08;;
15451;SDS011;7827;53.594;9.938;2022-10-16T13:22:59;4.53;;;1.98;;
15451;SDS011;7827;53.594;9.938;2022-10-16T13:25:44;7.85;;;2.42;;
15451;SDS011;7827;53.594;9.938;2022-10-16T13:28:30;9.23;;;1.92;;
15451;SDS011;7827;53.594;9.938;2022-10-16T13:31:01;8.95;;;2.05;;
15451;SDS011;7827;53.594;9.938;2022-10-16T13:33:32;5.38;;;1.52;;
15451;SDS011;7827;53.594;9.938;2022-10-16T13:36:04;8.25;;;2.80;;
15451;SDS011;7827;53.594;9.938;2022-10-16T13:38:34;8.40;;;1.90;;
15451;SDS011;7827;53.594;9.938;2022-10-16T13:41:05;5.03;;;2.00;;
15451;SDS011;7827;53.594;9.938;2022-10-16T13:43:43;6.85;;;2.10;;
15451;SDS011;7827;53.594;9.938;2022-10-16T13:46:17;4.70;;;1.83;;
15451;SDS011;7827;53.594;9.938;2022-10-16T13:48:55;4.47;;;1.70;;
15451;SDS011;7827;53.594;9.938;2022-10-16T13:51:26;6.45;;;3.33;;
15451;SDS011;7827;53.594;9.938;2022-10-16T13:53:55;3.15;;;1.52;;
15451;SDS011;7827;53.594;9.938;2022-10-16T13:56:25;5.47;;;1.38;;
15451;SDS011;7827;53.594;9.938;2022-10-16T13:59:00;3.55;;;1.83;;
15451;SDS011;7827;53.594;9.938;2022-10-16T14:01:31;5.13;;;2.00;;
15451;SDS011;7827;53.594;9.938;2022-10-16T14:04:03;5.85;;;1.85;;
15451;SDS011;7827;53.594;9.938;2022-10-16T14:06:34;4.72;;;1.55;;
15451;SDS011;7827;53.594;9.938;2022-10-16T14:09:07;3.17;;;1.48;;
15451;SDS011;7827;53.594;9.938;2022-10-16T14:11:45;6.38;;;1.80;;
15451;SDS011;7827;53.594;9.938;2022-10-16T14:14:19;4.82;;;2.17;;
15451;SDS011;7827;53.594;9.938;2022-10-16T14:16:47;5.03;;;1.92;;
15451;SDS011;7827;53.594;9.938;2022-10-16T14:19:18;10.45;;;3.65;;
15451;SDS011;7827;53.594;9.938;2022-10-16T14:21:50;4.93;;;1.77;;
15451;SDS011;7827;53.594;9.938;2022-10-16T14:24:22;5.28;;;2.95;;
15451;SDS011;7827;53.594;9.938;2022-10-16T14:27:32;7.40;;;2.15;;
15451;SDS011;7827;53.594;9.938;2022-10-16T14:30:09;6.57;;;1.80;;
15451;SDS011;7827;53.594;9.938;2022-10-16T14:32:52;4.45;;;1.90;;
15451;SDS011;7827;53.594;9.938;2022-10-16T14:35:26;5.32;;;2.05;;
15451;SDS011;7827;53.594;9.938;2022-10-16T14:37:58;4.43;;;1.60;;
15451;SDS011;7827;53.594;9.938;2022-10-16T14:40:30;7.22;;;2.00;;
15451;SDS011;7827;53.594;9.938;2022-10-16T14:43:01;7.57;;;2.10;;
15451;SDS011;7827;53.594;9.938;2022-10-16T14:45:33;5.13;;;2.20;;
15451;SDS011;7827;53.594;9.938;2022-10-16T14:48:03;5.63;;;1.85;;
15451;SDS011;7827;53.594;9.938;2022-10-16T14:50:45;6.85;;;2.15;;
15451;SDS011;7827;53.594;9.938;2022-10-16T14:53:14;8.48;;;2.13;;
15451;SDS011;7827;53.594;9.938;2022-10-16T14:55:42;5.75;;;2.17;;
15451;SDS011;7827;53.594;9.938;2022-10-16T14:58:13;6.63;;;1.80;;
15451;SDS011;7827;53.594;9.938;2022-10-16T15:00:46;4.68;;;1.85;;
15451;SDS011;7827;53.594;9.938;2022-10-16T15:03:15;5.28;;;1.95;;
15451;SDS011;7827;53.594;9.938;2022-10-16T15:05:43;5.55;;;1.65;;
15451;SDS011;7827;53.594;9.938;2022-10-16T15:08:11;8.15;;;2.00;;
15451;SDS011;7827;53.594;9.938;2022-10-16T15:10:40;4.78;;;1.95;;
15451;SDS011;7827;53.594;9.938;2022-10-16T15:13:11;5.45;;;1.70;;
15451;SDS011;7827;53.594;9.938;2022-10-16T15:15:42;4.35;;;1.95;;
15451;SDS011;7827;53.594;9.938;2022-10-16T15:18:12;5.88;;;2.55;;
15451;SDS011;7827;53.594;9.938;2022-10-16T15:20:47;2.90;;;2.00;;
15451;SDS011;7827;53.594;9.938;2022-10-16T15:23:18;5.20;;;2.30;;
15451;SDS011;7827;53.594;9.938;2022-10-16T15:25:49;12.20;;;2.35;;
15451;SDS011;7827;53.594;9.938;2022-10-16T15:28:19;7.18;;;2.28;;
15451;SDS011;7827;53.594;9.938;2022-10-16T15:30:50;4.97;;;2.08;;
15451;SDS011;7827;53.594;9.938;2022-10-16T15:33:21;7.38;;;2.20;;
15451;SDS011;7827;53.594;9.938;2022-10-16T15:35:53;6.57;;;2.35;;
15451;SDS011;7827;53.594;9.938;2022-10-16T15:38:22;6.30;;;2.28;;
15451;SDS011;7827;53.594;9.938;2022-10-16T15:40:55;7.45;;;2.63;;
15451;SDS011;7827;53.594;9.938;2022-10-16T15:43:23;6.68;;;2.15;;
15451;SDS011;7827;53.594;9.938;2022-10-16T15:45:57;6.63;;;2.47;;
15451;SDS011;7827;53.594;9.938;2022-10-16T15:48:29;5.90;;;1.80;;